Time;durP1;ratioP1;P1;durP2;ratioP2;P2;SDS_P1;SDS_P2;PMS_P1;PMS_P2;Temp;Humidity;BMP_temperature;BMP_pressure;BME280_temperature;BME280_humidity;BME280_pressure;Samples;Min_cycle;Max_cycle;Signal;HPM_P1;HPM_P2
2023/07/08 00:00:47;;;;;;;8.98;5.45;;;15.40;76.20;;;;;;5085365;28;20149;-78
2023/07/08 00:03:16;;;;;;;11.43;5.13;;;15.40;76.70;;;;;;5090912;28;20084;-78
2023/07/08 00:05:43;;;;;;;12.15;4.93;;;15.30;76.60;;;;;;5088338;28;20044;-78
2023/07/08 00:08:19;;;;;;;7.70;5.50;;;15.30;76.80;;;;;;5087312;28;20127;-78
2023/07/08 00:10:46;;;;;;;;;;;15.30;76.50;;;;;;5086468;28;20129;-78
2023/07/08 00:13:13;;;;;;;6.95;4.68;;;15.30;76.90;;;;;;5085613;28;19931;-78
2023/07/08 00:15:40;;;;;;;11.23;5.57;;;15.20;77.00;;;;;;5088214;28;20051;-78
2023/07/08 00:18:15;;;;;;;15.48;5.55;;;15.20;76.70;;;;;;5083723;28;20072;-78
2023/07/08 00:20:46;;;;;;;12.30;6.00;;;15.10;76.10;;;;;;5076703;28;20534;-78
2023/07/08 00:23:13;;;;;;;9.38;5.60;;;15.10;76.50;;;;;;5081593;28;20044;-78
2023/07/08 00:25:41;;;;;;;8.73;5.68;;;15.10;77.50;;;;;;5074362;28;20048;-79
2023/07/08 00:28:14;;;;;;;9.40;5.32;;;15.00;77.50;;;;;;5081261;28;20048;-77
2023/07/08 00:30:42;;;;;;;13.68;5.80;;;14.90;77.90;;;;;;5094275;27;20090;-79
2023/07/08 00:33:08;;;;;;;8.55;5.65;;;14.90;78.50;;;;;;5085079;28;20137;-78
2023/07/08 00:35:36;;;;;;;9.25;5.80;;;14.80;78.60;;;;;;5085181;28;20044;-78
2023/07/08 00:38:26;;;;;;;9.55;5.63;;;14.80;78.20;;;;;;5083169;28;20047;-78
2023/07/08 00:41:06;;;;;;;13.35;6.25;;;14.80;78.10;;;;;;5096031;28;20799;-78
2023/07/08 00:43:46;;;;;;;9.57;5.75;;;14.70;78.20;;;;;;5082086;28;20623;-79
2023/07/08 00:46:31;;;;;;;8.68;5.20;;;14.70;77.60;;;;;;5084306;28;20048;-78
2023/07/08 00:49:08;;;;;;;11.43;5.72;;;14.60;78.50;;;;;;5083695;28;20044;-78
2023/07/08 00:51:39;;;;;;;11.57;5.25;;;14.50;78.20;;;;;;5096059;28;20059;-78
2023/07/08 00:54:11;;;;;;;10.38;7.05;;;14.50;78.40;;;;;;5086974;28;20135;-78
2023/07/08 00:56:53;;;;;;;12.57;5.72;;;14.50;78.50;;;;;;5088325;28;20118;-78
2023/07/08 00:59:22;;;;;;;10.63;5.57;;;14.40;78.30;;;;;;5078004;28;20048;-78
2023/07/08 01:01:50;;;;;;;12.15;5.35;;;14.40;78.90;;;;;;5084467;28;20177;-78
2023/07/08 01:04:25;;;;;;;10.65;5.65;;;14.30;79.40;;;;;;5082037;28;20863;-78
2023/07/08 01:06:57;;;;;;;9.02;5.78;;;14.30;78.80;;;;;;5099079;28;20296;-78
2023/07/08 01:09:30;;;;;;;9.55;5.63;;;14.20;79.20;;;;;;5080885;28;20058;-78
2023/07/08 01:12:01;;;;;;;7.60;5.57;;;14.20;79.30;;;;;;5079339;28;20052;-78
2023/07/08 01:14:31;;;;;;;9.00;5.63;;;14.20;79.80;;;;;;5079147;28;20048;-78
2023/07/08 01:16:58;;;;;;;10.68;6.57;;;14.10;80.10;;;;;;5078374;28;20044;-78
2023/07/08 01:19:32;;;;;;;11.77;6.65;;;14.10;81.10;;;;;;5076740;28;20040;-78
2023/07/08 01:21:59;;;;;;;9.23;5.30;;;14.00;80.80;;;;;;5078177;28;20054;-78
2023/07/08 01:24:29;;;;;;;7.55;5.78;;;14.00;80.30;;;;;;5076995;28;20468;-78
2023/07/08 01:26:57;;;;;;;10.90;6.22;;;13.90;80.50;;;;;;5075913;28;20048;-79
2023/07/08 01:29:24;;;;;;;10.05;6.10;;;14.00;80.20;;;;;;5075787;28;20048;-78
2023/07/08 01:31:51;;;;;;;11.80;6.65;;;13.90;80.10;;;;;;5075911;28;20062;-78
2023/07/08 01:34:18;;;;;;;11.02;6.57;;;13.90;80.20;;;;;;5081695;28;20129;-78
2023/07/08 01:36:50;;;;;;;10.32;5.82;;;13.80;80.30;;;;;;5081128;28;20516;-78
2023/07/08 01:39:19;;;;;;;12.63;6.22;;;13.80;80.80;;;;;;5084804;28;20040;-78
2023/07/08 01:41:46;;;;;;;17.90;6.30;;;13.80;81.10;;;;;;5098923;28;20040;-78
2023/07/08 01:44:28;;;;;;;10.38;6.43;;;13.70;81.30;;;;;;5082443;28;20444;-78
2023/07/08 01:47:17;;;;;;;14.27;7.10;;;13.70;81.00;;;;;;5086622;28;20096;-78
2023/07/08 01:49:46;;;;;;;12.25;6.43;;;13.60;80.70;;;;;;5085643;28;20520;-78
2023/07/08 01:52:16;;;;;;;9.95;6.97;;;13.50;80.90;;;;;;5087033;28;20052;-78
2023/07/08 01:54:43;;;;;;;12.18;6.78;;;13.50;80.80;;;;;;5086182;28;20079;-78
2023/07/08 01:57:10;;;;;;;11.65;7.00;;;13.50;81.50;;;;;;5081298;28;20129;-78
2023/07/08 01:59:37;;;;;;;11.18;6.90;;;13.40;81.70;;;;;;5081229;28;20120;-77
2023/07/08 02:02:03;;;;;;;10.00;6.00;;;13.40;82.00;;;;;;5081393;28;20047;-78
2023/07/08 02:04:30;;;;;;;16.60;6.80;;;13.30;82.80;;;;;;5085413;28;20048;-78
2023/07/08 02:06:59;;;;;;;10.50;6.38;;;13.20;83.00;;;;;;5085947;28;20710;-78
2023/07/08 02:09:26;;;;;;;10.70;6.55;;;13.20;82.80;;;;;;5085054;28;20141;-78
2023/07/08 02:11:54;;;;;;;10.32;6.13;;;13.20;83.10;;;;;;5081879;28;20056;-78
2023/07/08 02:14:21;;;;;;;8.55;6.38;;;13.20;83.70;;;;;;5081121;28;20048;-78
2023/07/08 02:16:48;;;;;;;8.68;6.28;;;13.20;83.30;;;;;;5081821;28;20060;-78
2023/07/08 02:19:14;;;;;;;9.13;6.50;;;13.10;82.60;;;;;;5078440;28;20552;-78
2023/07/08 02:21:41;;;;;;;9.00;6.32;;;13.10;82.70;;;;;;5080343;28;20052;-78
2023/07/08 02:24:08;;;;;;;10.65;6.60;;;13.10;82.50;;;;;;5080287;28;20068;-78
2023/07/08 02:26:35;;;;;;;9.55;6.78;;;13.10;82.50;;;;;;5085382;28;20058;-78
2023/07/08 02:29:03;;;;;;;13.73;6.65;;;13.10;83.40;;;;;;5079006;28;20043;-77
2023/07/08 02:31:29;;;;;;;8.50;5.47;;;13.00;83.40;;;;;;5080265;28;20215;-78
2023/07/08 02:33:56;;;;;;;11.57;6.65;;;13.00;84.10;;;;;;5079540;28;20050;-78
2023/07/08 02:36:23;;;;;;;12.02;6.72;;;12.90;84.30;;;;;;5075002;28;20167;-78
2023/07/08 02:38:50;;;;;;;13.10;7.13;;;12.90;84.60;;;;;;5075111;28;20051;-77
2023/07/08 02:41:17;;;;;;;11.27;6.70;;;12.80;85.40;;;;;;5080307;28;20151;-78
2023/07/08 02:43:44;;;;;;;10.15;7.50;;;12.80;84.80;;;;;;5078175;28;20048;-78
2023/07/08 02:46:11;;;;;;;10.18;6.60;;;12.80;84.70;;;;;;5083459;28;20127;-78
2023/07/08 02:48:38;;;;;;;14.25;6.32;;;12.80;84.50;;;;;;5085947;28;20144;-78
2023/07/08 02:51:06;;;;;;;11.82;7.57;;;12.80;84.60;;;;;;5085050;28;20048;-78
2023/07/08 02:53:33;;;;;;;11.10;6.25;;;12.80;84.80;;;;;;5086200;28;20125;-78
2023/07/08 02:56:00;;;;;;;11.60;7.10;;;12.80;85.30;;;;;;5089168;28;20052;-78
2023/07/08 02:58:26;;;;;;;9.23;6.45;;;12.70;84.50;;;;;;5084289;28;20043;-78
2023/07/08 03:00:54;;;;;;;12.82;6.60;;;12.70;84.40;;;;;;5082295;28;20058;-78
2023/07/08 03:03:22;;;;;;;12.60;7.20;;;12.70;84.10;;;;;;5090733;28;20044;-78
2023/07/08 03:06:05;;;;;;;11.68;6.80;;;12.70;84.00;;;;;;5079730;28;20044;-78
2023/07/08 03:08:32;;;;;;;12.57;6.72;;;12.70;84.00;;;;;;5078871;28;20695;-78
2023/07/08 03:11:01;;;;;;;12.68;6.88;;;12.70;83.90;;;;;;5078183;28;20139;-78
2023/07/08 03:13:29;;;;;;;10.30;7.28;;;12.70;83.40;;;;;;5083878;28;20101;-78
2023/07/08 03:15:59;;;;;;;12.38;7.10;;;12.70;83.80;;;;;;5091177;28;20785;-78
2023/07/08 03:18:26;;;;;;;13.27;7.22;;;12.70;83.70;;;;;;5078121;28;20067;-78
2023/07/08 03:20:55;;;;;;;11.23;6.97;;;12.70;84.20;;;;;;5078756;28;20074;-78
2023/07/08 03:23:23;;;;;;;15.07;7.35;;;12.60;84.10;;;;;;5077553;28;20055;-77
2023/07/08 03:25:51;;;;;;;14.23;7.53;;;12.60;84.00;;;;;;5083700;28;20114;-78
2023/07/08 03:28:18;;;;;;;11.35;7.20;;;12.60;84.20;;;;;;5080821;28;20152;-78
2023/07/08 03:30:50;;;;;;;16.33;7.80;;;12.60;84.20;;;;;;5077859;28;20048;-78
2023/07/08 03:33:17;;;;;;;13.82;8.30;;;12.60;84.60;;;;;;5099588;28;20528;-78
2023/07/08 03:35:45;;;;;;;10.40;7.38;;;12.60;84.80;;;;;;5083864;28;20941;-78
2023/07/08 03:38:12;;;;;;;8.48;6.38;;;12.60;85.20;;;;;;5085553;28;20742;-78
2023/07/08 03:40:38;;;;;;;21.23;8.32;;;12.60;85.70;;;;;;5084334;28;20048;-78
2023/07/08 03:43:05;;;;;;;11.95;7.15;;;12.60;85.80;;;;;;5087428;28;20039;-78
2023/07/08 03:45:32;;;;;;;17.00;7.10;;;12.60;85.70;;;;;;5087677;28;20056;-77
2023/07/08 03:47:59;;;;;;;10.52;6.22;;;12.60;85.50;;;;;;5085390;28;20132;-78
2023/07/08 03:50:26;;;;;;;13.70;7.10;;;12.60;86.10;;;;;;5086333;28;20559;-78
2023/07/08 03:52:54;;;;;;;15.10;7.70;;;12.60;86.10;;;;;;5083832;28;20056;-78
2023/07/08 03:55:22;;;;;;;14.02;7.72;;;12.60;86.20;;;;;;5089653;28;20039;-77
2023/07/08 03:57:49;;;;;;;12.40;7.88;;;12.60;86.70;;;;;;5086267;28;20706;-78
2023/07/08 04:00:16;;;;;;;16.23;8.38;;;12.70;86.10;;;;;;5088126;28;20484;-78
2023/07/08 04:02:44;;;;;;;14.00;7.80;;;12.80;85.80;;;;;;5094085;28;20083;-77
2023/07/08 04:05:19;;;;;;;12.73;7.97;;;12.70;85.70;;;;;;5090679;28;20127;-78
2023/07/08 04:07:47;;;;;;;10.93;6.53;;;12.80;85.70;;;;;;5078912;28;20719;-78
2023/07/08 04:10:14;;;;;;;15.65;7.60;;;12.80;85.80;;;;;;5086093;28;20101;-78
2023/07/08 04:12:41;;;;;;;12.73;7.60;;;12.80;86.20;;;;;;5086226;28;20052;-77
2023/07/08 04:15:09;;;;;;;14.32;7.63;;;12.90;86.40;;;;;;5087342;28;20076;-78
2023/07/08 04:17:45;;;;;;;13.43;7.75;;;12.90;86.60;;;;;;5083316;28;20044;-77
2023/07/08 04:20:15;;;;;;;12.25;8.18;;;12.90;86.70;;;;;;5085396;28;20155;-77
2023/07/08 04:22:42;;;;;;;13.65;8.05;;;13.00;86.70;;;;;;5082611;28;20560;-78
2023/07/08 04:25:10;;;;;;;13.35;7.53;;;13.00;87.00;;;;;;5080705;28;20087;-78
2023/07/08 04:27:38;;;;;;;12.70;8.30;;;13.10;87.20;;;;;;5087072;28;20047;-78
2023/07/08 04:30:06;;;;;;;18.02;8.82;;;13.10;87.10;;;;;;5083828;28;20058;-77
2023/07/08 04:32:33;;;;;;;13.20;7.75;;;13.20;86.90;;;;;;5086867;28;20056;-78
2023/07/08 04:35:00;;;;;;;13.27;7.88;;;13.20;86.90;;;;;;5083414;28;20428;-77
2023/07/08 04:37:27;;;;;;;14.15;8.10;;;13.30;87.20;;;;;;5082669;28;21162;-78
2023/07/08 04:39:54;;;;;;;12.77;7.90;;;13.40;87.10;;;;;;5085916;28;20047;-78
2023/07/08 04:42:21;;;;;;;12.82;7.57;;;13.40;87.30;;;;;;5087539;28;20120;-77
2023/07/08 04:44:49;;;;;;;13.68;7.97;;;13.50;87.20;;;;;;5085402;28;20056;-78
2023/07/08 04:47:16;;;;;;;14.40;8.32;;;13.60;86.80;;;;;;5082170;28;20048;-77
2023/07/08 04:49:43;;;;;;;11.90;7.55;;;13.60;86.80;;;;;;5085955;28;20047;-78
2023/07/08 04:52:10;;;;;;;11.15;6.68;;;13.70;86.90;;;;;;5084218;28;20683;-77
2023/07/08 04:54:37;;;;;;;13.77;8.23;;;13.80;87.00;;;;;;5084359;28;20122;-78
2023/07/08 04:57:04;;;;;;;13.02;7.70;;;13.80;87.10;;;;;;5083662;28;20047;-78
2023/07/08 04:59:34;;;;;;;11.73;7.68;;;13.90;86.60;;;;;;5080516;28;20135;-78
2023/07/08 05:02:01;;;;;;;12.48;6.80;;;13.90;87.00;;;;;;5088179;28;20047;-78
2023/07/08 05:04:28;;;;;;;11.02;7.80;;;14.00;87.00;;;;;;5083564;28;20751;-78
2023/07/08 05:06:55;;;;;;;10.00;6.88;;;14.00;87.10;;;;;;5087143;28;20143;-77
2023/07/08 05:09:25;;;;;;;13.52;7.07;;;14.10;86.90;;;;;;5084930;28;20048;-78
2023/07/08 05:11:52;;;;;;;13.18;7.00;;;14.20;86.70;;;;;;5079481;28;20128;-78
2023/07/08 05:14:19;;;;;;;11.13;6.97;;;14.20;87.10;;;;;;5082501;28;20051;-78
2023/07/08 05:16:46;;;;;;;8.80;6.20;;;14.30;86.90;;;;;;5084494;28;20135;-77
2023/07/08 05:19:13;;;;;;;9.02;6.50;;;14.40;86.70;;;;;;5081944;28;20150;-77
2023/07/08 05:21:40;;;;;;;10.25;6.80;;;14.40;86.70;;;;;;5084724;28;20051;-78
2023/07/08 05:24:08;;;;;;;10.65;6.57;;;14.50;86.60;;;;;;5102341;27;20048;-78
2023/07/08 05:26:35;;;;;;;10.82;6.00;;;14.60;86.40;;;;;;5087282;28;20072;-77
2023/07/08 05:29:02;;;;;;;8.70;5.70;;;14.70;86.20;;;;;;5084602;28;20048;-77
2023/07/08 05:31:29;;;;;;;8.75;5.93;;;14.80;86.20;;;;;;5085471;28;21006;-78
2023/07/08 05:33:58;;;;;;;11.57;6.78;;;14.90;85.90;;;;;;5080664;28;20055;-78
2023/07/08 05:36:25;;;;;;;11.80;6.88;;;15.00;86.10;;;;;;5087566;28;20048;-78
2023/07/08 05:38:52;;;;;;;11.00;6.28;;;15.10;85.60;;;;;;5084703;28;20044;-78
2023/07/08 05:41:19;;;;;;;9.68;5.65;;;15.20;85.70;;;;;;5079483;28;20393;-78
2023/07/08 05:43:46;;;;;;;9.95;5.70;;;15.30;85.40;;;;;;5081771;28;20066;-78
2023/07/08 05:46:13;;;;;;;9.50;5.60;;;15.40;84.90;;;;;;5080340;28;20047;-77
2023/07/08 05:48:40;;;;;;;9.05;5.53;;;15.50;85.00;;;;;;5087152;28;20055;-77
2023/07/08 05:51:07;;;;;;;8.18;4.95;;;15.60;84.50;;;;;;5080886;28;20139;-78
2023/07/08 05:53:34;;;;;;;8.93;5.10;;;15.80;84.60;;;;;;5078112;28;20048;-78
2023/07/08 05:56:02;;;;;;;11.32;5.75;;;15.90;83.90;;;;;;5087050;28;20055;-78
2023/07/08 05:58:29;;;;;;;9.70;5.28;;;16.00;83.60;;;;;;5086062;28;20047;-78
2023/07/08 06:00:57;;;;;;;8.93;5.22;;;16.20;83.90;;;;;;5081486;28;20135;-77
2023/07/08 06:03:25;;;;;;;7.82;5.30;;;16.30;83.40;;;;;;5083408;28;20055;-77
2023/07/08 06:05:53;;;;;;;7.18;4.68;;;16.50;82.90;;;;;;5083370;28;20708;-78
2023/07/08 06:08:20;;;;;;;6.35;4.63;;;16.70;83.20;;;;;;5084401;28;20603;-78
2023/07/08 06:10:47;;;;;;;9.02;5.07;;;16.90;82.00;;;;;;5087341;28;20176;-78
2023/07/08 06:13:14;;;;;;;14.00;4.72;;;17.10;81.60;;;;;;5088097;28;20561;-78
2023/07/08 06:15:42;;;;;;;7.63;4.03;;;17.30;80.60;;;;;;5083161;28;20121;-78
2023/07/08 06:18:09;;;;;;;12.60;4.70;;;17.70;80.40;;;;;;5086046;28;20047;-78
2023/07/08 06:20:36;;;;;;;7.28;4.35;;;18.00;80.40;;;;;;5081503;28;20079;-79
2023/07/08 06:23:03;;;;;;;6.78;4.00;;;18.30;79.30;;;;;;5085427;28;20139;-79
2023/07/08 06:25:31;;;;;;;6.60;3.53;;;18.70;77.90;;;;;;5087163;28;20056;-78
2023/07/08 06:27:58;;;;;;;18.33;4.35;;;19.10;76.30;;;;;;5085516;28;20058;-78
2023/07/08 06:30:25;;;;;;;6.93;3.95;;;19.50;74.00;;;;;;5087020;28;20044;-79
2023/07/08 06:32:52;;;;;;;8.63;3.72;;;20.00;70.30;;;;;;5084789;28;20079;-79
2023/07/08 06:35:19;;;;;;;6.38;3.75;;;20.40;70.10;;;;;;5085824;28;20043;-79
2023/07/08 06:37:46;;;;;;;8.18;3.35;;;20.70;68.00;;;;;;5086102;28;20048;-78
2023/07/08 06:40:14;;;;;;;10.05;2.92;;;21.10;66.20;;;;;;5084111;28;20131;-79
2023/07/08 06:42:41;;;;;;;5.55;3.38;;;21.40;65.20;;;;;;5080259;28;20174;-79
2023/07/08 06:45:08;;;;;;;10.18;3.10;;;21.70;63.70;;;;;;5080750;28;20206;-76
2023/07/08 06:47:35;;;;;;;5.90;2.97;;;22.10;62.60;;;;;;5081662;28;20057;-75
2023/07/08 06:50:02;;;;;;;6.28;3.03;;;22.30;62.80;;;;;;5088029;28;20048;-76
2023/07/08 06:52:33;;;;;;;9.35;2.70;;;22.60;62.20;;;;;;5082308;28;20135;-76
2023/07/08 06:55:01;;;;;;;4.15;2.30;;;22.90;61.60;;;;;;5085060;28;20243;-77
2023/07/08 06:57:31;;;;;;;4.47;2.78;;;23.10;60.20;;;;;;5079836;28;20047;-76
2023/07/08 06:59:59;;;;;;;8.07;2.70;;;23.30;58.80;;;;;;5083154;28;20687;-77
2023/07/08 07:02:27;;;;;;;6.85;3.05;;;23.60;58.00;;;;;;5084416;28;20043;-80
2023/07/08 07:04:55;;;;;;;5.05;3.10;;;23.90;57.70;;;;;;5100303;28;20752;-77
2023/07/08 07:07:22;;;;;;;5.22;2.38;;;24.20;57.10;;;;;;5086709;28;20040;-77
2023/07/08 07:09:49;;;;;;;13.63;3.63;;;24.40;56.30;;;;;;5084121;28;20561;-78
2023/07/08 07:12:16;;;;;;;5.65;2.50;;;24.70;55.80;;;;;;5086752;28;20047;-83
2023/07/08 07:14:43;;;;;;;7.63;2.83;;;25.00;54.90;;;;;;5085407;28;20555;-81
2023/07/08 07:17:13;;;;;;;7.43;3.20;;;25.10;55.00;;;;;;5093235;28;20115;-85
2023/07/08 07:19:40;;;;;;;7.13;3.10;;;25.20;55.20;;;;;;5087636;28;20048;-85
2023/07/08 07:22:07;;;;;;;6.60;2.53;;;25.40;54.60;;;;;;5087518;28;20040;-86
2023/07/08 07:24:34;;;;;;;8.50;2.88;;;25.70;53.60;;;;;;5086492;28;20044;-86
2023/07/08 07:27:01;;;;;;;4.18;2.42;;;25.90;52.90;;;;;;5089984;28;20381;-85
2023/07/08 07:29:28;;;;;;;6.47;2.50;;;26.10;51.90;;;;;;5088299;28;20058;-84
2023/07/08 07:31:55;;;;;;;7.38;2.80;;;26.30;52.60;;;;;;5088383;28;20052;-85
2023/07/08 07:34:22;;;;;;;4.63;2.55;;;26.40;50.70;;;;;;5083658;28;20076;-81
2023/07/08 07:36:49;;;;;;;9.00;2.35;;;26.50;51.40;;;;;;5089826;28;20660;-81
2023/07/08 07:39:16;;;;;;;5.20;2.92;;;26.70;50.60;;;;;;5083508;28;20131;-78
2023/07/08 07:41:42;;;;;;;19.98;4.15;;;26.90;50.80;;;;;;5086656;28;20477;-79
2023/07/08 07:44:09;;;;;;;11.38;2.80;;;27.00;50.40;;;;;;5080196;28;20037;-79
2023/07/08 07:46:36;;;;;;;8.00;2.58;;;27.00;51.70;;;;;;5081932;28;20048;-78
2023/07/08 07:49:03;;;;;;;9.73;2.70;;;27.10;53.30;;;;;;5083357;28;20044;-78
2023/07/08 07:51:30;;;;;;;7.60;2.85;;;27.20;50.90;;;;;;5081553;28;20062;-78
2023/07/08 07:53:57;;;;;;;5.32;2.83;;;27.40;49.10;;;;;;5083390;28;20458;-78
2023/07/08 07:56:30;;;;;;;10.13;2.38;;;27.50;50.40;;;;;;5087981;28;20105;-78
2023/07/08 07:58:57;;;;;;;4.60;2.50;;;27.50;50.40;;;;;;5090019;28;20087;-83
2023/07/08 08:01:24;;;;;;;6.60;2.78;;;27.60;49.60;;;;;;5088270;28;20444;-84
2023/07/08 08:03:52;;;;;;;8.82;2.58;;;27.70;48.80;;;;;;5086147;28;20040;-83
2023/07/08 08:06:19;;;;;;;6.65;2.35;;;27.60;49.80;;;;;;5082537;28;20051;-83
2023/07/08 08:08:47;;;;;;;6.95;2.45;;;27.70;49.10;;;;;;5089562;28;20072;-83
2023/07/08 08:11:14;;;;;;;5.78;2.50;;;27.70;48.80;;;;;;5088030;28;20760;-83
2023/07/08 08:13:42;;;;;;;7.85;2.55;;;27.80;49.10;;;;;;5082452;28;20052;-83
2023/07/08 08:16:09;;;;;;;9.18;2.60;;;27.90;49.10;;;;;;5083262;28;20036;-83
2023/07/08 08:18:35;;;;;;;5.50;2.30;;;28.10;48.40;;;;;;5087774;28;20694;-82
2023/07/08 08:21:02;;;;;;;4.15;2.63;;;28.30;48.70;;;;;;5085013;28;20125;-80
2023/07/08 08:23:29;;;;;;;11.02;2.80;;;28.50;47.40;;;;;;5087270;28;20896;-81
2023/07/08 08:25:56;;;;;;;8.55;2.20;;;28.70;47.10;;;;;;5083322;28;20094;-82
2023/07/08 08:28:23;;;;;;;4.10;2.33;;;28.80;46.20;;;;;;5077658;28;20045;-80
2023/07/08 08:30:50;;;;;;;4.75;2.33;;;28.70;45.50;;;;;;5084372;28;20131;-81
2023/07/08 08:33:18;;;;;;;4.07;2.13;;;28.70;45.30;;;;;;5091381;28;20044;-81
2023/07/08 08:35:46;;;;;;;6.28;2.35;;;28.80;47.00;;;;;;5091455;28;20044;-81
2023/07/08 08:38:13;;;;;;;6.03;2.17;;;29.00;45.70;;;;;;5089250;28;20954;-80
2023/07/08 08:40:41;;;;;;;4.50;2.25;;;29.00;46.10;;;;;;5090571;28;20044;-82
2023/07/08 08:43:35;;;;;;;9.80;2.50;;;29.10;46.40;;;;;;5113767;27;20537;-82
2023/07/08 08:46:27;;;;;;;5.28;2.63;;;29.30;45.00;;;;;;5088636;28;20067;-84
2023/07/08 08:49:17;;;;;;;7.20;2.13;;;29.40;44.10;;;;;;5093102;28;20131;-83
2023/07/08 08:51:44;;;;;;;8.70;3.15;;;29.60;44.50;;;;;;5091562;28;20054;-81
2023/07/08 08:54:11;;;;;;;5.00;2.20;;;29.50;45.70;;;;;;5092122;28;20079;-81
2023/07/08 08:57:05;;;;;;;2.90;2.10;;;29.60;45.80;;;;;;5090738;28;20130;-81
2023/07/08 08:59:42;;;;;;;5.10;2.50;;;29.90;43.10;;;;;;5090656;28;20135;-81
2023/07/08 09:02:32;;;;;;;6.97;2.50;;;29.80;44.50;;;;;;5092802;28;20147;-81
2023/07/08 09:05:04;;;;;;;11.45;3.10;;;30.00;43.80;;;;;;5088883;28;20037;-81
2023/07/08 09:07:47;;;;;;;8.75;2.90;;;30.10;43.20;;;;;;5089115;28;20551;-80
2023/07/08 09:10:40;;;;;;;3.95;2.63;;;30.30;42.70;;;;;;5078596;28;20058;-83
2023/07/08 09:13:11;;;;;;;3.47;2.13;;;30.80;41.60;;;;;;5083979;28;20574;-85
2023/07/08 09:15:39;;;;;;;2.45;2.20;;;31.00;41.80;;;;;;5093685;28;20058;-83
2023/07/08 09:18:21;;;;;;;4.80;2.50;;;31.00;42.40;;;;;;5095359;28;20098;-85
2023/07/08 09:20:48;;;;;;;3.38;2.30;;;31.30;43.10;;;;;;5092007;28;20082;-82
2023/07/08 09:23:34;;;;;;;8.98;2.78;;;31.40;41.50;;;;;;5090010;28;20126;-84
2023/07/08 09:26:09;;;;;;;5.35;2.47;;;31.70;40.40;;;;;;5079539;28;20173;-86
2023/07/08 09:28:40;;;;;;;;;;;31.80;40.50;;;;;;5085915;28;20068;-86
2023/07/08 09:31:20;;;;;;;4.05;2.28;;;31.90;39.30;;;;;;5085777;28;19928;-85
2023/07/08 09:33:50;;;;;;;5.93;2.25;;;32.10;40.20;;;;;;5088490;28;20052;-85
2023/07/08 09:36:21;;;;;;;5.85;2.50;;;32.10;40.60;;;;;;5090619;28;20083;-87
2023/07/08 09:38:49;;;;;;;9.57;2.53;;;32.30;41.00;;;;;;5086359;28;20043;-84
2023/07/08 09:41:30;;;;;;;4.72;2.25;;;32.40;41.20;;;;;;5085662;28;20071;-83
2023/07/08 09:44:23;;;;;;;9.23;2.40;;;32.60;40.40;;;;;;5087762;28;20105;-86
2023/07/08 09:46:50;;;;;;;7.05;2.00;;;32.70;40.40;;;;;;5085140;28;20126;-84
2023/07/08 09:49:17;;;;;;;4.10;2.15;;;32.80;39.50;;;;;;5088838;28;20577;-85
2023/07/08 09:51:45;;;;;;;11.98;2.33;;;32.90;40.10;;;;;;5089376;28;20048;-85
2023/07/08 09:54:12;;;;;;;5.35;2.20;;;32.80;39.20;;;;;;5091781;28;20739;-85
2023/07/08 09:56:43;;;;;;;8.13;2.35;;;32.80;38.90;;;;;;5089674;28;20538;-85
2023/07/08 09:59:14;;;;;;;4.30;2.47;;;32.90;39.80;;;;;;5086867;28;20044;-85
2023/07/08 10:01:42;;;;;;;5.47;2.28;;;33.00;39.30;;;;;;5086504;28;20076;-85
2023/07/08 10:04:11;;;;;;;4.57;2.30;;;33.10;39.40;;;;;;5086267;28;20048;-86
2023/07/08 10:06:38;;;;;;;5.82;2.60;;;32.90;39.50;;;;;;5088752;28;20039;-84
2023/07/08 10:09:18;;;;;;;3.30;2.60;;;32.90;40.40;;;;;;5089608;28;20048;-88
2023/07/08 10:11:58;;;;;;;10.27;2.60;;;33.30;40.10;;;;;;5081023;28;20048;-83
2023/07/08 10:14:35;;;;;;;7.78;2.45;;;33.40;38.60;;;;;;5084580;28;20676;-80
2023/07/08 10:17:02;;;;;;;8.63;2.20;;;33.50;39.20;;;;;;5082531;28;20083;-80
2023/07/08 10:19:29;;;;;;;5.47;2.40;;;33.40;40.10;;;;;;5086747;22;20052;-84
2023/07/08 10:22:08;;;;;;;3.50;2.25;;;33.60;39.00;;;;;;5061623;28;20110;-82
2023/07/08 10:24:51;;;;;;;4.18;2.30;;;33.80;38.80;;;;;;5059041;28;20072;-77
2023/07/08 10:27:36;;;;;;;5.70;2.00;;;33.90;38.00;;;;;;5058754;28;20068;-80
2023/07/08 10:30:06;;;;;;;5.72;2.40;;;34.00;37.20;;;;;;5062593;28;20045;-79
2023/07/08 10:32:57;;;;;;;7.50;2.38;;;33.80;37.20;;;;;;5061477;28;20053;-83
2023/07/08 10:35:50;;;;;;;3.42;2.25;;;33.80;37.50;;;;;;5062250;28;20072;-82
2023/07/08 10:38:17;;;;;;;3.72;2.38;;;33.50;38.90;;;;;;5059230;28;20132;-76
2023/07/08 10:41:06;;;;;;;9.57;2.25;;;33.70;38.10;;;;;;5061443;28;20051;-79
2023/07/08 10:43:38;;;;;;;6.32;2.10;;;33.90;38.10;;;;;;5062322;28;20131;-85
2023/07/08 10:46:27;;;;;;;6.30;2.22;;;34.00;38.10;;;;;;5062395;28;20044;-81
2023/07/08 10:49:23;;;;;;;3.10;2.10;;;34.30;38.00;;;;;;5064964;28;20040;-83
2023/07/08 10:52:05;;;;;;;2.83;2.10;;;34.60;36.80;;;;;;5066361;28;20045;-82
2023/07/08 10:54:44;;;;;;;5.57;2.20;;;34.50;36.50;;;;;;5062486;28;20109;-82
2023/07/08 10:57:39;;;;;;;4.82;2.30;;;34.10;36.60;;;;;;5069249;28;20091;-82
2023/07/08 11:00:09;;;;;;;4.15;2.50;;;34.20;36.40;;;;;;5070234;28;20079;-84
2023/07/08 11:03:23;;;;;;;6.65;1.90;;;33.90;35.90;;;;;;5069798;28;20067;-83
2023/07/08 11:06:13;;;;;;;3.80;2.20;;;34.00;37.00;;;;;;5041014;28;20075;-82
2023/07/08 11:08:45;;;;;;;4.75;2.17;;;34.10;36.80;;;;;;5069333;28;20044;-82
2023/07/08 11:11:44;;;;;;;6.05;2.08;;;34.00;36.20;;;;;;5070000;28;20071;-83
2023/07/08 11:14:21;;;;;;;4.78;2.50;;;34.10;36.70;;;;;;5052290;28;20202;-83
2023/07/08 11:17:25;;;;;;;3.17;1.95;;;34.30;36.70;;;;;;5065842;28;20187;-83
2023/07/08 11:20:18;;;;;;;6.57;2.72;;;34.30;36.30;;;;;;5065103;28;20048;-83
2023/07/08 11:22:54;;;;;;;2.78;2.10;;;33.60;35.90;;;;;;5049629;28;20131;-84
2023/07/08 11:25:25;;;;;;;4.68;2.40;;;33.60;37.00;;;;;;5065908;28;20090;-83
2023/07/08 11:27:56;;;;;;;3.63;1.80;;;33.80;36.20;;;;;;5066977;28;20076;-84
2023/07/08 11:30:27;;;;;;;2.83;2.13;;;33.80;35.40;;;;;;5076415;28;20056;-83
2023/07/08 11:33:14;;;;;;;5.63;2.10;;;33.70;34.60;;;;;;5068109;28;20058;-89
2023/07/08 11:35:51;;;;;;;5.63;1.90;;;33.60;34.70;;;;;;5066931;28;20063;-84
2023/07/08 11:38:20;;;;;;;4.55;2.17;;;33.70;36.00;;;;;;5059043;28;20056;-81
2023/07/08 11:41:24;;;;;;;2.78;2.15;;;33.80;35.80;;;;;;5079829;28;20053;-77
2023/07/08 11:44:02;;;;;;;4.15;1.92;;;33.80;35.10;;;;;;5049128;28;20045;-81
2023/07/08 11:46:34;;;;;;;2.45;2.15;;;33.50;36.00;;;;;;5057699;28;20036;-82
2023/07/08 11:49:12;;;;;;;2.80;2.08;;;33.50;35.80;;;;;;5060014;28;20045;-77
2023/07/08 11:51:42;;;;;;;5.28;2.15;;;33.40;35.50;;;;;;5069713;28;20122;-77
2023/07/08 11:54:13;;;;;;;4.43;2.30;;;33.40;33.80;;;;;;5063871;28;20062;-80
2023/07/08 11:57:08;;;;;;;5.72;2.30;;;32.90;34.60;;;;;;5065665;28;20106;-81
2023/07/08 11:59:41;;;;;;;6.00;1.92;;;32.60;35.70;;;;;;5067714;28;20044;-81
2023/07/08 12:02:16;;;;;;;6.03;2.15;;;32.50;34.60;;;;;;5079011;28;20067;-80
2023/07/08 12:04:56;;;;;;;3.45;2.42;;;32.70;36.20;;;;;;5080575;28;20056;-81
2023/07/08 12:07:57;;;;;;;3.30;2.00;;;32.90;36.50;;;;;;5066748;28;20052;-81
2023/07/08 12:10:48;;;;;;;3.83;2.05;;;33.10;35.30;;;;;;5059278;28;20047;-81
2023/07/08 12:13:19;;;;;;;5.97;2.00;;;33.10;36.50;;;;;;5069078;28;20055;-80
2023/07/08 12:15:46;;;;;;;6.47;2.20;;;33.30;36.10;;;;;;5070763;28;20056;-80
2023/07/08 12:18:27;;;;;;;7.53;2.10;;;33.30;36.10;;;;;;5070935;28;20135;-81
2023/07/08 12:21:00;;;;;;;9.05;2.28;;;33.20;36.40;;;;;;5069357;28;20211;-81
2023/07/08 12:23:29;;;;;;;3.30;2.20;;;33.30;35.90;;;;;;5072397;28;20131;-81
2023/07/08 12:26:00;;;;;;;4.20;2.17;;;33.60;34.80;;;;;;5064287;28;20049;-82
2023/07/08 12:28:26;;;;;;;5.53;2.17;;;33.70;35.60;;;;;;5071573;28;20090;-81
2023/07/08 12:30:54;;;;;;;4.82;2.05;;;33.60;35.50;;;;;;5070259;28;20129;-82
2023/07/08 12:33:32;;;;;;;4.25;2.00;;;33.80;35.60;;;;;;5075324;28;20044;-83
2023/07/08 12:36:00;;;;;;;5.85;2.30;;;33.90;34.40;;;;;;5074851;28;20044;-83
2023/07/08 12:38:37;;;;;;;4.38;2.22;;;33.80;34.70;;;;;;5075721;28;20076;-82
2023/07/08 12:41:14;;;;;;;3.83;2.20;;;33.70;34.00;;;;;;5069242;28;20044;-82
2023/07/08 12:43:41;;;;;;;14.63;2.40;;;33.30;33.50;;;;;;5061863;28;20094;-82
2023/07/08 12:46:11;;;;;;;3.78;2.13;;;33.00;34.20;;;;;;5062993;28;20048;-82
2023/07/08 12:48:40;;;;;;;7.07;2.58;;;33.00;34.20;;;;;;5070391;28;20117;-82
2023/07/08 12:51:16;;;;;;;4.72;2.22;;;33.00;35.50;;;;;;5080303;28;20052;-81
2023/07/08 12:53:43;;;;;;;3.35;2.20;;;33.10;36.00;;;;;;5066390;28;20515;-81
2023/07/08 12:56:11;;;;;;;4.43;2.45;;;33.10;34.30;;;;;;5065054;28;20076;-82
2023/07/08 12:58:42;;;;;;;4.00;2.15;;;33.10;36.00;;;;;;5066257;28;20733;-81
2023/07/08 13:01:22;;;;;;;4.35;2.22;;;33.30;34.10;;;;;;5063345;28;20047;-81
2023/07/08 13:03:52;;;;;;;2.88;2.10;;;33.30;34.70;;;;;;5068555;28;20040;-82